sensor_id;sensor_type;location;lat;lon;timestamp;P1;durP1;ratioP1;P2;durP2;ratioP2
57441;SDS011;43284;47.042;15.498;2023-11-25T00:00:53;0.40;;;0.40;;
57441;SDS011;43284;47.042;15.498;2023-11-25T00:03:19;0.22;;;0.22;;
57441;SDS011;43284;47.042;15.498;2023-11-25T00:05:45;0.10;;;0.10;;
57441;SDS011;43284;47.042;15.498;2023-11-25T00:08:14;0.38;;;0.10;;
57441;SDS011;43284;47.042;15.498;2023-11-25T00:10:40;0.08;;;0.08;;
57441;SDS011;43284;47.042;15.498;2023-11-25T00:13:06;1.95;;;0.20;;
57441;SDS011;43284;47.042;15.498;2023-11-25T00:15:31;0.10;;;0.10;;
57441;SDS011;43284;47.042;15.498;2023-11-25T00:17:57;0.10;;;0.10;;
57441;SDS011;43284;47.042;15.498;2023-11-25T00:20:23;0.73;;;0.25;;
57441;SDS011;43284;47.042;15.498;2023-11-25T00:22:50;0.10;;;0.10;;
57441;SDS011;43284;47.042;15.498;2023-11-25T00:25:19;0.03;;;0.03;;
57441;SDS011;43284;47.042;15.498;2023-11-25T00:27:45;0.20;;;0.20;;
57441;SDS011;43284;47.042;15.498;2023-11-25T00:30:14;0.15;;;0.10;;
57441;SDS011;43284;47.042;15.498;2023-11-25T00:32:40;0.15;;;0.10;;
57441;SDS011;43284;47.042;15.498;2023-11-25T00:35:09;0.10;;;0.10;;
57441;SDS011;43284;47.042;15.498;2023-11-25T00:37:51;1.08;;;0.22;;
57441;SDS011;43284;47.042;15.498;2023-11-25T00:40:18;0.30;;;0.10;;
57441;SDS011;43284;47.042;15.498;2023-11-25T00:42:44;1.25;;;0.40;;
57441;SDS011;43284;47.042;15.498;2023-11-25T00:45:11;0.63;;;0.40;;
57441;SDS011;43284;47.042;15.498;2023-11-25T00:47:39;1.27;;;0.30;;
57441;SDS011;43284;47.042;15.498;2023-11-25T00:50:05;0.52;;;0.30;;
57441;SDS011;43284;47.042;15.498;2023-11-25T00:52:32;0.30;;;0.30;;
57441;SDS011;43284;47.042;15.498;2023-11-25T00:54:57;0.30;;;0.30;;
57441;SDS011;43284;47.042;15.498;2023-11-25T00:57:23;2.25;;;0.28;;
57441;SDS011;43284;47.042;15.498;2023-11-25T00:59:49;1.67;;;0.30;;
57441;SDS011;43284;47.042;15.498;2023-11-25T01:02:14;0.35;;;0.35;;
57441;SDS011;43284;47.042;15.498;2023-11-25T01:04:40;0.45;;;0.40;;
57441;SDS011;43284;47.042;15.498;2023-11-25T01:07:06;0.45;;;0.35;;
57441;SDS011;43284;47.042;15.498;2023-11-25T01:09:32;0.40;;;0.28;;
57441;SDS011;43284;47.042;15.498;2023-11-25T01:11:57;0.77;;;0.30;;
57441;SDS011;43284;47.042;15.498;2023-11-25T01:14:23;0.38;;;0.30;;
57441;SDS011;43284;47.042;15.498;2023-11-25T01:16:52;0.20;;;0.20;;
57441;SDS011;43284;47.042;15.498;2023-11-25T01:19:17;1.00;;;0.60;;
57441;SDS011;43284;47.042;15.498;2023-11-25T01:21:43;0.10;;;0.10;;
57441;SDS011;43284;47.042;15.498;2023-11-25T01:24:08;0.65;;;0.40;;
57441;SDS011;43284;47.042;15.498;2023-11-25T01:26:36;0.52;;;0.28;;
57441;SDS011;43284;47.042;15.498;2023-11-25T01:29:05;0.25;;;0.25;;
57441;SDS011;43284;47.042;15.498;2023-11-25T01:31:32;0.30;;;0.30;;
57441;SDS011;43284;47.042;15.498;2023-11-25T01:33:58;0.77;;;0.45;;
57441;SDS011;43284;47.042;15.498;2023-11-25T01:36:23;0.43;;;0.30;;
57441;SDS011;43284;47.042;15.498;2023-11-25T01:38:50;0.32;;;0.32;;
57441;SDS011;43284;47.042;15.498;2023-11-25T01:41:16;0.30;;;0.20;;
57441;SDS011;43284;47.042;15.498;2023-11-25T01:43:42;0.30;;;0.30;;
57441;SDS011;43284;47.042;15.498;2023-11-25T01:46:07;0.25;;;0.25;;
57441;SDS011;43284;47.042;15.498;2023-11-25T01:48:33;0.30;;;0.30;;
57441;SDS011;43284;47.042;15.498;2023-11-25T01:51:00;0.57;;;0.28;;
57441;SDS011;43284;47.042;15.498;2023-11-25T01:53:30;0.95;;;0.30;;
57441;SDS011;43284;47.042;15.498;2023-11-25T01:55:58;0.20;;;0.20;;
57441;SDS011;43284;47.042;15.498;2023-11-25T01:58:26;0.20;;;0.20;;
57441;SDS011;43284;47.042;15.498;2023-11-25T02:00:53;0.20;;;0.17;;
57441;SDS011;43284;47.042;15.498;2023-11-25T02:03:20;0.30;;;0.10;;
57441;SDS011;43284;47.042;15.498;2023-11-25T02:05:45;0.32;;;0.32;;
57441;SDS011;43284;47.042;15.498;2023-11-25T02:08:11;1.15;;;0.80;;
57441;SDS011;43284;47.042;15.498;2023-11-25T02:10:37;0.10;;;0.10;;
57441;SDS011;43284;47.042;15.498;2023-11-25T02:13:06;0.30;;;0.30;;
57441;SDS011;43284;47.042;15.498;2023-11-25T02:15:36;0.20;;;0.20;;
57441;SDS011;43284;47.042;15.498;2023-11-25T02:18:03;2.83;;;0.38;;
57441;SDS011;43284;47.042;15.498;2023-11-25T02:20:32;0.77;;;0.20;;
57441;SDS011;43284;47.042;15.498;2023-11-25T02:23:03;0.50;;;0.50;;
57441;SDS011;43284;47.042;15.498;2023-11-25T02:25:29;0.45;;;0.43;;
57441;SDS011;43284;47.042;15.498;2023-11-25T02:27:58;0.30;;;0.30;;
57441;SDS011;43284;47.042;15.498;2023-11-25T02:30:26;2.60;;;0.40;;
57441;SDS011;43284;47.042;15.498;2023-11-25T02:32:52;0.30;;;0.30;;
57441;SDS011;43284;47.042;15.498;2023-11-25T02:35:18;0.52;;;0.32;;
57441;SDS011;43284;47.042;15.498;2023-11-25T02:37:46;1.23;;;0.40;;
57441;SDS011;43284;47.042;15.498;2023-11-25T02:40:14;1.30;;;0.57;;
57441;SDS011;43284;47.042;15.498;2023-11-25T02:42:43;2.15;;;0.90;;
57441;SDS011;43284;47.042;15.498;2023-11-25T02:45:21;2.88;;;0.98;;
57441;SDS011;43284;47.042;15.498;2023-11-25T02:47:48;3.15;;;0.80;;
57441;SDS011;43284;47.042;15.498;2023-11-25T02:50:15;2.97;;;0.98;;
57441;SDS011;43284;47.042;15.498;2023-11-25T02:52:41;0.45;;;0.45;;
57441;SDS011;43284;47.042;15.498;2023-11-25T02:55:08;4.78;;;0.40;;
57441;SDS011;43284;47.042;15.498;2023-11-25T02:57:41;0.22;;;0.22;;
57441;SDS011;43284;47.042;15.498;2023-11-25T03:00:12;1.65;;;0.40;;
57441;SDS011;43284;47.042;15.498;2023-11-25T03:02:48;0.43;;;0.40;;
57441;SDS011;43284;47.042;15.498;2023-11-25T03:05:16;1.35;;;0.60;;
57441;SDS011;43284;47.042;15.498;2023-11-25T03:07:42;0.73;;;0.57;;
57441;SDS011;43284;47.042;15.498;2023-11-25T03:10:10;0.60;;;0.60;;
57441;SDS011;43284;47.042;15.498;2023-11-25T03:12:41;0.43;;;0.43;;
57441;SDS011;43284;47.042;15.498;2023-11-25T03:15:09;1.38;;;0.50;;
57441;SDS011;43284;47.042;15.498;2023-11-25T03:17:38;0.77;;;0.50;;
57441;SDS011;43284;47.042;15.498;2023-11-25T03:20:04;0.70;;;0.40;;
57441;SDS011;43284;47.042;15.498;2023-11-25T03:22:32;1.17;;;0.60;;
57441;SDS011;43284;47.042;15.498;2023-11-25T03:24:57;2.08;;;0.95;;
57441;SDS011;43284;47.042;15.498;2023-11-25T03:27:23;0.57;;;0.55;;
57441;SDS011;43284;47.042;15.498;2023-11-25T03:29:48;0.32;;;0.32;;
57441;SDS011;43284;47.042;15.498;2023-11-25T03:32:14;0.30;;;0.30;;
57441;SDS011;43284;47.042;15.498;2023-11-25T03:34:40;0.60;;;0.43;;
57441;SDS011;43284;47.042;15.498;2023-11-25T03:37:07;0.73;;;0.30;;
57441;SDS011;43284;47.042;15.498;2023-11-25T03:39:33;0.47;;;0.40;;
57441;SDS011;43284;47.042;15.498;2023-11-25T03:42:01;1.15;;;0.60;;
57441;SDS011;43284;47.042;15.498;2023-11-25T03:44:26;0.43;;;0.43;;
57441;SDS011;43284;47.042;15.498;2023-11-25T03:46:52;1.13;;;0.70;;
57441;SDS011;43284;47.042;15.498;2023-11-25T03:49:18;1.60;;;0.82;;
57441;SDS011;43284;47.042;15.498;2023-11-25T03:51:45;0.77;;;0.65;;
57441;SDS011;43284;47.042;15.498;2023-11-25T03:54:11;0.93;;;0.70;;
57441;SDS011;43284;47.042;15.498;2023-11-25T03:56:37;0.93;;;0.60;;
57441;SDS011;43284;47.042;15.498;2023-11-25T03:59:02;0.47;;;0.47;;
57441;SDS011;43284;47.042;15.498;2023-11-25T04:01:28;0.47;;;0.35;;
57441;SDS011;43284;47.042;15.498;2023-11-25T04:03:53;1.08;;;0.35;;
57441;SDS011;43284;47.042;15.498;2023-11-25T04:06:19;0.35;;;0.30;;
57441;SDS011;43284;47.042;15.498;2023-11-25T04:08:44;7.68;;;0.52;;
57441;SDS011;43284;47.042;15.498;2023-11-25T04:11:10;0.80;;;0.30;;
57441;SDS011;43284;47.042;15.498;2023-11-25T04:13:36;0.38;;;0.30;;
57441;SDS011;43284;47.042;15.498;2023-11-25T04:16:01;0.30;;;0.30;;
57441;SDS011;43284;47.042;15.498;2023-11-25T04:18:29;0.30;;;0.30;;
57441;SDS011;43284;47.042;15.498;2023-11-25T04:20:55;0.52;;;0.20;;
57441;SDS011;43284;47.042;15.498;2023-11-25T04:23:24;0.63;;;0.25;;
57441;SDS011;43284;47.042;15.498;2023-11-25T04:25:50;0.45;;;0.30;;
57441;SDS011;43284;47.042;15.498;2023-11-25T04:28:15;0.52;;;0.38;;
57441;SDS011;43284;47.042;15.498;2023-11-25T04:30:41;0.30;;;0.30;;
57441;SDS011;43284;47.042;15.498;2023-11-25T04:33:07;1.27;;;0.77;;
57441;SDS011;43284;47.042;15.498;2023-11-25T04:35:37;1.60;;;0.70;;
57441;SDS011;43284;47.042;15.498;2023-11-25T04:38:02;3.05;;;1.17;;
57441;SDS011;43284;47.042;15.498;2023-11-25T04:40:28;2.20;;;1.00;;
57441;SDS011;43284;47.042;15.498;2023-11-25T04:42:54;2.22;;;1.10;;
57441;SDS011;43284;47.042;15.498;2023-11-25T04:45:19;0.68;;;0.68;;
57441;SDS011;43284;47.042;15.498;2023-11-25T04:47:46;0.55;;;0.50;;
57441;SDS011;43284;47.042;15.498;2023-11-25T04:50:13;3.55;;;0.70;;
57441;SDS011;43284;47.042;15.498;2023-11-25T04:52:39;0.65;;;0.47;;
57441;SDS011;43284;47.042;15.498;2023-11-25T04:55:09;0.90;;;0.55;;
57441;SDS011;43284;47.042;15.498;2023-11-25T04:57:37;0.50;;;0.45;;
57441;SDS011;43284;47.042;15.498;2023-11-25T05:00:03;0.63;;;0.45;;
57441;SDS011;43284;47.042;15.498;2023-11-25T05:02:34;0.35;;;0.35;;
57441;SDS011;43284;47.042;15.498;2023-11-25T05:05:00;0.63;;;0.32;;
57441;SDS011;43284;47.042;15.498;2023-11-25T05:07:25;0.98;;;0.43;;
57441;SDS011;43284;47.042;15.498;2023-11-25T05:09:51;0.35;;;0.35;;
57441;SDS011;43284;47.042;15.498;2023-11-25T05:12:17;0.85;;;0.57;;
57441;SDS011;43284;47.042;15.498;2023-11-25T05:14:45;0.85;;;0.47;;
57441;SDS011;43284;47.042;15.498;2023-11-25T05:17:11;1.33;;;0.60;;
57441;SDS011;43284;47.042;15.498;2023-11-25T05:19:37;0.35;;;0.35;;
57441;SDS011;43284;47.042;15.498;2023-11-25T05:22:03;0.60;;;0.45;;
57441;SDS011;43284;47.042;15.498;2023-11-25T05:24:29;0.45;;;0.45;;
57441;SDS011;43284;47.042;15.498;2023-11-25T05:26:55;0.93;;;0.45;;
57441;SDS011;43284;47.042;15.498;2023-11-25T05:29:22;2.50;;;0.40;;
57441;SDS011;43284;47.042;15.498;2023-11-25T05:31:47;0.63;;;0.43;;
57441;SDS011;43284;47.042;15.498;2023-11-25T05:34:13;0.85;;;0.63;;
57441;SDS011;43284;47.042;15.498;2023-11-25T05:36:39;0.50;;;0.50;;
57441;SDS011;43284;47.042;15.498;2023-11-25T05:39:04;0.55;;;0.55;;
57441;SDS011;43284;47.042;15.498;2023-11-25T05:41:32;2.10;;;1.30;;
57441;SDS011;43284;47.042;15.498;2023-11-25T05:44:01;0.55;;;0.30;;
57441;SDS011;43284;47.042;15.498;2023-11-25T05:46:29;0.45;;;0.40;;
57441;SDS011;43284;47.042;15.498;2023-11-25T05:48:55;1.05;;;0.68;;
57441;SDS011;43284;47.042;15.498;2023-11-25T05:51:20;1.98;;;1.00;;
57441;SDS011;43284;47.042;15.498;2023-11-25T05:53:46;2.08;;;1.10;;
57441;SDS011;43284;47.042;15.498;2023-11-25T05:56:12;1.42;;;0.70;;
57441;SDS011;43284;47.042;15.498;2023-11-25T05:58:37;1.50;;;1.10;;
57441;SDS011;43284;47.042;15.498;2023-11-25T06:01:03;2.38;;;0.90;;
57441;SDS011;43284;47.042;15.498;2023-11-25T06:03:30;0.73;;;0.38;;
57441;SDS011;43284;47.042;15.498;2023-11-25T06:05:58;0.43;;;0.43;;
57441;SDS011;43284;47.042;15.498;2023-11-25T06:08:24;1.50;;;0.57;;
57441;SDS011;43284;47.042;15.498;2023-11-25T06:10:50;0.47;;;0.40;;
57441;SDS011;43284;47.042;15.498;2023-11-25T06:13:16;0.20;;;0.20;;
57441;SDS011;43284;47.042;15.498;2023-11-25T06:15:41;0.65;;;0.43;;
57441;SDS011;43284;47.042;15.498;2023-11-25T06:18:07;3.40;;;1.17;;
57441;SDS011;43284;47.042;15.498;2023-11-25T06:20:33;0.52;;;0.52;;
57441;SDS011;43284;47.042;15.498;2023-11-25T06:23:02;0.30;;;0.30;;
57441;SDS011;43284;47.042;15.498;2023-11-25T06:25:31;1.35;;;0.45;;
57441;SDS011;43284;47.042;15.498;2023-11-25T06:27:56;0.63;;;0.50;;
57441;SDS011;43284;47.042;15.498;2023-11-25T06:30:23;1.20;;;0.57;;
57441;SDS011;43284;47.042;15.498;2023-11-25T06:32:49;0.77;;;0.73;;
57441;SDS011;43284;47.042;15.498;2023-11-25T06:35:15;0.90;;;0.57;;
57441;SDS011;43284;47.042;15.498;2023-11-25T06:37:40;0.55;;;0.40;;
57441;SDS011;43284;47.042;15.498;2023-11-25T06:40:07;0.38;;;0.38;;
57441;SDS011;43284;47.042;15.498;2023-11-25T06:42:37;0.40;;;0.40;;
57441;SDS011;43284;47.042;15.498;2023-11-25T06:45:03;0.80;;;0.45;;
57441;SDS011;43284;47.042;15.498;2023-11-25T06:47:29;5.63;;;1.48;;
57441;SDS011;43284;47.042;15.498;2023-11-25T06:49:54;0.90;;;0.50;;
57441;SDS011;43284;47.042;15.498;2023-11-25T06:52:22;0.73;;;0.60;;
57441;SDS011;43284;47.042;15.498;2023-11-25T06:54:48;0.57;;;0.47;;
57441;SDS011;43284;47.042;15.498;2023-11-25T06:57:14;0.77;;;0.40;;
57441;SDS011;43284;47.042;15.498;2023-11-25T06:59:40;2.08;;;0.73;;
57441;SDS011;43284;47.042;15.498;2023-11-25T07:02:10;1.67;;;0.50;;
57441;SDS011;43284;47.042;15.498;2023-11-25T07:04:39;1.00;;;0.50;;
57441;SDS011;43284;47.042;15.498;2023-11-25T07:07:05;0.65;;;0.60;;
57441;SDS011;43284;47.042;15.498;2023-11-25T07:09:33;0.50;;;0.40;;
57441;SDS011;43284;47.042;15.498;2023-11-25T07:11:59;2.35;;;0.77;;
57441;SDS011;43284;47.042;15.498;2023-11-25T07:14:24;0.80;;;0.32;;
57441;SDS011;43284;47.042;15.498;2023-11-25T07:16:50;0.57;;;0.57;;
57441;SDS011;43284;47.042;15.498;2023-11-25T07:19:17;1.27;;;0.50;;
57441;SDS011;43284;47.042;15.498;2023-11-25T07:21:44;0.73;;;0.40;;
57441;SDS011;43284;47.042;15.498;2023-11-25T07:24:09;0.50;;;0.45;;
57441;SDS011;43284;47.042;15.498;2023-11-25T07:26:36;0.50;;;0.35;;
57441;SDS011;43284;47.042;15.498;2023-11-25T07:29:06;0.30;;;0.30;;
57441;SDS011;43284;47.042;15.498;2023-11-25T07:31:34;0.82;;;0.60;;
57441;SDS011;43284;47.042;15.498;2023-11-25T07:34:02;0.95;;;0.50;;
57441;SDS011;43284;47.042;15.498;2023-11-25T07:36:29;0.88;;;0.50;;
57441;SDS011;43284;47.042;15.498;2023-11-25T07:38:54;0.75;;;0.30;;
57441;SDS011;43284;47.042;15.498;2023-11-25T07:41:20;0.82;;;0.50;;
57441;SDS011;43284;47.042;15.498;2023-11-25T07:43:46;0.32;;;0.32;;
57441;SDS011;43284;47.042;15.498;2023-11-25T07:46:11;0.57;;;0.57;;
57441;SDS011;43284;47.042;15.498;2023-11-25T07:48:37;0.88;;;0.40;;
57441;SDS011;43284;47.042;15.498;2023-11-25T07:51:03;0.68;;;0.25;;
57441;SDS011;43284;47.042;15.498;2023-11-25T07:53:29;1.20;;;0.70;;
57441;SDS011;43284;47.042;15.498;2023-11-25T07:55:58;0.25;;;0.25;;
57441;SDS011;43284;47.042;15.498;2023-11-25T07:58:23;0.70;;;0.35;;
57441;SDS011;43284;47.042;15.498;2023-11-25T08:00:49;0.20;;;0.20;;
57441;SDS011;43284;47.042;15.498;2023-11-25T08:03:15;0.45;;;0.20;;
57441;SDS011;43284;47.042;15.498;2023-11-25T08:05:41;0.10;;;0.10;;
57441;SDS011;43284;47.042;15.498;2023-11-25T08:08:06;0.75;;;0.28;;
57441;SDS011;43284;47.042;15.498;2023-11-25T08:10:32;0.63;;;0.30;;
57441;SDS011;43284;47.042;15.498;2023-11-25T08:12:59;0.20;;;0.20;;
57441;SDS011;43284;47.042;15.498;2023-11-25T08:15:26;0.63;;;0.35;;
57441;SDS011;43284;47.042;15.498;2023-11-25T08:17:51;0.10;;;0.10;;
57441;SDS011;43284;47.042;15.498;2023-11-25T08:20:17;1.00;;;0.30;;
57441;SDS011;43284;47.042;15.498;2023-11-25T08:22:43;1.63;;;0.30;;
57441;SDS011;43284;47.042;15.498;2023-11-25T08:25:08;0.03;;;0.03;;
57441;SDS011;43284;47.042;15.498;2023-11-25T08:27:35;0.52;;;0.13;;
57441;SDS011;43284;47.042;15.498;2023-11-25T08:30:04;0.63;;;0.15;;
57441;SDS011;43284;47.042;15.498;2023-11-25T08:32:40;0.60;;;0.10;;
57441;SDS011;43284;47.042;15.498;2023-11-25T08:35:07;0.05;;;0.05;;
57441;SDS011;43284;47.042;15.498;2023-11-25T08:37:34;0.40;;;0.22;;
57441;SDS011;43284;47.042;15.498;2023-11-25T08:40:05;1.45;;;0.20;;
57441;SDS011;43284;47.042;15.498;2023-11-25T08:42:46;0.25;;;0.17;;
57441;SDS011;43284;47.042;15.498;2023-11-25T08:45:12;1.25;;;0.35;;
57441;SDS011;43284;47.042;15.498;2023-11-25T08:47:38;0.93;;;0.25;;
57441;SDS011;43284;47.042;15.498;2023-11-25T08:50:06;0.47;;;0.20;;
57441;SDS011;43284;47.042;15.498;2023-11-25T08:52:34;0.22;;;0.22;;
57441;SDS011;43284;47.042;15.498;2023-11-25T08:55:04;3.25;;;0.28;;
57441;SDS011;43284;47.042;15.498;2023-11-25T08:57:36;1.48;;;0.30;;
57441;SDS011;43284;47.042;15.498;2023-11-25T09:00:03;0.15;;;0.15;;
57441;SDS011;43284;47.042;15.498;2023-11-25T09:02:42;0.10;;;0.10;;
57441;SDS011;43284;47.042;15.498;2023-11-25T09:05:09;0.03;;;0.03;;
57441;SDS011;43284;47.042;15.498;2023-11-25T09:07:36;0.20;;;0.20;;
57441;SDS011;43284;47.042;15.498;2023-11-25T09:10:03;0.10;;;0.10;;
57441;SDS011;43284;47.042;15.498;2023-11-25T09:12:33;0.10;;;0.10;;
57441;SDS011;43284;47.042;15.498;2023-11-25T09:14:59;0.57;;;0.30;;
57441;SDS011;43284;47.042;15.498;2023-11-25T09:17:25;0.70;;;0.20;;
57441;SDS011;43284;47.042;15.498;2023-11-25T09:19:51;0.77;;;0.30;;
57441;SDS011;43284;47.042;15.498;2023-11-25T09:22:16;0.70;;;0.20;;
57441;SDS011;43284;47.042;15.498;2023-11-25T09:24:42;0.10;;;0.10;;
57441;SDS011;43284;47.042;15.498;2023-11-25T09:27:10;0.10;;;0.10;;
57441;SDS011;43284;47.042;15.498;2023-11-25T09:29:38;0.50;;;0.25;;
57441;SDS011;43284;47.042;15.498;2023-11-25T09:32:07;0.52;;;0.25;;
57441;SDS011;43284;47.042;15.498;2023-11-25T09:34:32;1.15;;;0.10;;
57441;SDS011;43284;47.042;15.498;2023-11-25T09:36:59;0.10;;;0.10;;
57441;SDS011;43284;47.042;15.498;2023-11-25T09:39:25;0.13;;;0.13;;
57441;SDS011;43284;47.042;15.498;2023-11-25T09:41:50;0.15;;;0.15;;
57441;SDS011;43284;47.042;15.498;2023-11-25T09:44:19;0.15;;;0.10;;
57441;SDS011;43284;47.042;15.498;2023-11-25T09:46:49;0.10;;;0.10;;
57441;SDS011;43284;47.042;15.498;2023-11-25T09:49:15;0.30;;;0.10;;
57441;SDS011;43284;47.042;15.498;2023-11-25T09:51:42;0.05;;;0.05;;
57441;SDS011;43284;47.042;15.498;2023-11-25T09:54:10;0.68;;;0.10;;
57441;SDS011;43284;47.042;15.498;2023-11-25T09:59:12;0.20;;;0.10;;
57441;SDS011;43284;47.042;15.498;2023-11-25T10:01:38;0.05;;;0.05;;
57441;SDS011;43284;47.042;15.498;2023-11-25T10:04:08;0.20;;;0.20;;
57441;SDS011;43284;47.042;15.498;2023-11-25T10:06:38;1.65;;;0.22;;
57441;SDS011;43284;47.042;15.498;2023-11-25T10:09:04;0.65;;;0.10;;
57441;SDS011;43284;47.042;15.498;2023-11-25T10:11:34;0.10;;;0.05;;
57441;SDS011;43284;47.042;15.498;2023-11-25T10:14:01;0.10;;;0.10;;
57441;SDS011;43284;47.042;15.498;2023-11-25T10:16:31;0.15;;;0.13;;
57441;SDS011;43284;47.042;15.498;2023-11-25T10:18:57;0.30;;;0.20;;
57441;SDS011;43284;47.042;15.498;2023-11-25T10:21:22;0.10;;;0.10;;
57441;SDS011;43284;47.042;15.498;2023-11-25T10:23:48;0.15;;;0.10;;
57441;SDS011;43284;47.042;15.498;2023-11-25T10:26:19;0.47;;;0.30;;
57441;SDS011;43284;47.042;15.498;2023-11-25T10:28:45;0.10;;;0.10;;
57441;SDS011;43284;47.042;15.498;2023-11-25T10:31:12;2.40;;;0.40;;
57441;SDS011;43284;47.042;15.498;2023-11-25T10:33:44;0.32;;;0.20;;
57441;SDS011;43284;47.042;15.498;2023-11-25T10:36:09;0.20;;;0.20;;
57441;SDS011;43284;47.042;15.498;2023-11-25T10:38:38;0.10;;;0.10;;
57441;SDS011;43284;47.042;15.498;2023-11-25T10:41:07;0.03;;;0.03;;
57441;SDS011;43284;47.042;15.498;2023-11-25T10:43:39;0.10;;;0.10;;
57441;SDS011;43284;47.042;15.498;2023-11-25T10:46:10;0.10;;;0.10;;
57441;SDS011;43284;47.042;15.498;2023-11-25T10:48:35;0.08;;;0.08;;
57441;SDS011;43284;47.042;15.498;2023-11-25T10:51:05;0.10;;;0.10;;
57441;SDS011;43284;47.042;15.498;2023-11-25T10:53:32;0.30;;;0.30;;
57441;SDS011;43284;47.042;15.498;2023-11-25T10:56:00;0.10;;;0.10;;
57441;SDS011;43284;47.042;15.498;2023-11-25T10:58:27;1.27;;;0.40;;
57441;SDS011;43284;47.042;15.498;2023-11-25T11:01:03;0.10;;;0.10;;
57441;SDS011;43284;47.042;15.498;2023-11-25T11:03:46;0.17;;;0.17;;
57441;SDS011;43284;47.042;15.498;2023-11-25T11:06:23;0.10;;;0.10;;
57441;SDS011;43284;47.042;15.498;2023-11-25T11:08:54;0.10;;;0.10;;
57441;SDS011;43284;47.042;15.498;2023-11-25T11:14:10;0.17;;;0.10;;
57441;SDS011;43284;47.042;15.498;2023-11-25T11:16:42;0.20;;;0.20;;
57441;SDS011;43284;47.042;15.498;2023-11-25T11:19:16;0.10;;;0.10;;
57441;SDS011;43284;47.042;15.498;2023-11-25T11:21:45;0.17;;;0.17;;
57441;SDS011;43284;47.042;15.498;2023-11-25T11:24:15;0.38;;;0.13;;
57441;SDS011;43284;47.042;15.498;2023-11-25T11:29:36;0.20;;;0.10;;
57441;SDS011;43284;47.042;15.498;2023-11-25T11:32:11;0.22;;;0.15;;
57441;SDS011;43284;47.042;15.498;2023-11-25T11:34:44;0.10;;;0.10;;
57441;SDS011;43284;47.042;15.498;2023-11-25T11:37:09;0.35;;;0.10;;
57441;SDS011;43284;47.042;15.498;2023-11-25T11:39:39;0.35;;;0.17;;
57441;SDS011;43284;47.042;15.498;2023-11-25T11:45:11;0.75;;;0.10;;
57441;SDS011;43284;47.042;15.498;2023-11-25T11:50:27;1.05;;;0.20;;
57441;SDS011;43284;47.042;15.498;2023-11-25T11:55:34;0.10;;;0.10;;
57441;SDS011;43284;47.042;15.498;2023-11-25T11:58:13;0.55;;;0.20;;
57441;SDS011;43284;47.042;15.498;2023-11-25T12:03:31;0.32;;;0.30;;
57441;SDS011;43284;47.042;15.498;2023-11-25T12:05:58;0.10;;;0.10;;
57441;SDS011;43284;47.042;15.498;2023-11-25T12:08:24;0.10;;;0.10;;
57441;SDS011;43284;47.042;15.498;2023-11-25T12:10:52;0.85;;;0.20;;
57441;SDS011;43284;47.042;15.498;2023-11-25T12:13:25;0.05;;;0.05;;
57441;SDS011;43284;47.042;15.498;2023-11-25T12:15:53;0.20;;;0.20;;
57441;SDS011;43284;47.042;15.498;2023-11-25T12:18:19;0.38;;;0.20;;
57441;SDS011;43284;47.042;15.498;2023-11-25T12:20:46;1.27;;;0.17;;
57441;SDS011;43284;47.042;15.498;2023-11-25T12:23:12;0.35;;;0.20;;
57441;SDS011;43284;47.042;15.498;2023-11-25T12:25:38;0.35;;;0.20;;
57441;SDS011;43284;47.042;15.498;2023-11-25T12:28:08;0.30;;;0.22;;
57441;SDS011;43284;47.042;15.498;2023-11-25T12:30:35;0.13;;;0.13;;
57441;SDS011;43284;47.042;15.498;2023-11-25T12:33:02;0.25;;;0.15;;
57441;SDS011;43284;47.042;15.498;2023-11-25T12:35:28;0.15;;;0.15;;
57441;SDS011;43284;47.042;15.498;2023-11-25T12:37:54;0.10;;;0.10;;
57441;SDS011;43284;47.042;15.498;2023-11-25T12:40:21;0.00;;;0.00;;
57441;SDS011;43284;47.042;15.498;2023-11-25T12:42:52;0.10;;;0.10;;
57441;SDS011;43284;47.042;15.498;2023-11-25T12:48:19;0.03;;;0.03;;
57441;SDS011;43284;47.042;15.498;2023-11-25T12:53:35;0.88;;;0.20;;
57441;SDS011;43284;47.042;15.498;2023-11-25T12:56:17;0.32;;;0.30;;
57441;SDS011;43284;47.042;15.498;2023-11-25T12:58:43;0.10;;;0.10;;
57441;SDS011;43284;47.042;15.498;2023-11-25T13:01:09;0.10;;;0.10;;
57441;SDS011;43284;47.042;15.498;2023-11-25T13:03:35;4.40;;;0.15;;
57441;SDS011;43284;47.042;15.498;2023-11-25T13:06:02;0.10;;;0.10;;
57441;SDS011;43284;47.042;15.498;2023-11-25T13:08:29;0.52;;;0.28;;
57441;SDS011;43284;47.042;15.498;2023-11-25T13:11:08;0.30;;;0.30;;
57441;SDS011;43284;47.042;15.498;2023-11-25T13:13:34;1.08;;;0.30;;
57441;SDS011;43284;47.042;15.498;2023-11-25T13:16:00;0.38;;;0.30;;
57441;SDS011;43284;47.042;15.498;2023-11-25T13:18:27;0.15;;;0.10;;
57441;SDS011;43284;47.042;15.498;2023-11-25T13:20:54;0.45;;;0.30;;
57441;SDS011;43284;47.042;15.498;2023-11-25T13:23:20;0.20;;;0.20;;
57441;SDS011;43284;47.042;15.498;2023-11-25T13:25:47;1.38;;;0.25;;
57441;SDS011;43284;47.042;15.498;2023-11-25T13:28:12;0.43;;;0.25;;
57441;SDS011;43284;47.042;15.498;2023-11-25T13:30:39;0.52;;;0.30;;
57441;SDS011;43284;47.042;15.498;2023-11-25T13:33:06;0.30;;;0.30;;
57441;SDS011;43284;47.042;15.498;2023-11-25T13:35:32;0.22;;;0.22;;
57441;SDS011;43284;47.042;15.498;2023-11-25T13:37:59;0.40;;;0.20;;
57441;SDS011;43284;47.042;15.498;2023-11-25T13:40:26;0.20;;;0.20;;
57441;SDS011;43284;47.042;15.498;2023-11-25T13:43:01;0.10;;;0.10;;
57441;SDS011;43284;47.042;15.498;2023-11-25T13:45:29;0.40;;;0.28;;
57441;SDS011;43284;47.042;15.498;2023-11-25T13:47:55;0.57;;;0.30;;
57441;SDS011;43284;47.042;15.498;2023-11-25T13:50:22;0.28;;;0.22;;
57441;SDS011;43284;47.042;15.498;2023-11-25T13:52:48;0.10;;;0.10;;
57441;SDS011;43284;47.042;15.498;2023-11-25T13:55:15;2.78;;;0.55;;
57441;SDS011;43284;47.042;15.498;2023-11-25T13:57:42;2.03;;;0.30;;
57441;SDS011;43284;47.042;15.498;2023-11-25T14:00:08;0.55;;;0.30;;
57441;SDS011;43284;47.042;15.498;2023-11-25T14:02:35;0.38;;;0.30;;
57441;SDS011;43284;47.042;15.498;2023-11-25T14:05:01;3.03;;;0.30;;
57441;SDS011;43284;47.042;15.498;2023-11-25T14:07:28;0.30;;;0.20;;
57441;SDS011;43284;47.042;15.498;2023-11-25T14:09:55;0.25;;;0.10;;
57441;SDS011;43284;47.042;15.498;2023-11-25T14:12:20;0.15;;;0.10;;
57441;SDS011;43284;47.042;15.498;2023-11-25T14:14:46;1.08;;;0.30;;
57441;SDS011;43284;47.042;15.498;2023-11-25T14:17:12;0.10;;;0.10;;
57441;SDS011;43284;47.042;15.498;2023-11-25T14:19:42;0.43;;;0.40;;
57441;SDS011;43284;47.042;15.498;2023-11-25T14:22:11;0.30;;;0.28;;
57441;SDS011;43284;47.042;15.498;2023-11-25T14:24:37;0.75;;;0.40;;
57441;SDS011;43284;47.042;15.498;2023-11-25T14:27:03;0.32;;;0.32;;
57441;SDS011;43284;47.042;15.498;2023-11-25T14:29:29;0.30;;;0.30;;
57441;SDS011;43284;47.042;15.498;2023-11-25T14:31:55;0.75;;;0.30;;
57441;SDS011;43284;47.042;15.498;2023-11-25T14:34:20;0.15;;;0.15;;
57441;SDS011;43284;47.042;15.498;2023-11-25T14:36:46;2.72;;;0.20;;
57441;SDS011;43284;47.042;15.498;2023-11-25T14:39:12;0.20;;;0.20;;
57441;SDS011;43284;47.042;15.498;2023-11-25T14:41:43;4.97;;;0.20;;
57441;SDS011;43284;47.042;15.498;2023-11-25T14:44:11;1.02;;;0.20;;
57441;SDS011;43284;47.042;15.498;2023-11-25T14:46:37;0.30;;;0.20;;
57441;SDS011;43284;47.042;15.498;2023-11-25T14:49:03;0.40;;;0.20;;
57441;SDS011;43284;47.042;15.498;2023-11-25T14:51:30;0.82;;;0.43;;
57441;SDS011;43284;47.042;15.498;2023-11-25T14:53:55;0.70;;;0.47;;
57441;SDS011;43284;47.042;15.498;2023-11-25T14:56:21;2.17;;;0.63;;
57441;SDS011;43284;47.042;15.498;2023-11-25T14:58:46;1.55;;;0.65;;